createdAt,value
2022-12-13T00:02:18.349Z,21.98
2022-12-13T00:04:45.396Z,20.83
2022-12-13T00:07:12.721Z,20.80
2022-12-13T00:09:46.335Z,20.95
2022-12-13T00:12:13.091Z,23.10
2022-12-13T00:14:46.383Z,21.67
2022-12-13T00:17:15.558Z,21.23
2022-12-13T00:19:42.388Z,20.67
2022-12-13T00:22:15.386Z,21.55
2022-12-13T00:24:45.980Z,20.88
2022-12-13T00:27:19.376Z,20.95
2022-12-13T00:29:53.383Z,24.33
2022-12-13T00:32:26.412Z,22.00
2022-12-13T00:34:53.188Z,20.15
2022-12-13T00:37:19.978Z,19.98
2022-12-13T00:39:58.399Z,21.10
2022-12-13T00:42:25.142Z,19.98
2022-12-13T00:44:51.874Z,21.73
2022-12-13T00:47:27.416Z,21.10
2022-12-13T00:49:54.251Z,19.63
2022-12-13T00:52:21.154Z,22.52
2022-12-13T00:54:54.416Z,17.52
2022-12-13T00:57:27.409Z,18.10
2022-12-13T00:59:54.170Z,22.55
2022-12-13T01:02:27.412Z,19.85
2022-12-13T01:04:54.807Z,20.45
2022-12-13T01:07:28.408Z,21.67
2022-12-13T01:09:57.405Z,19.35
2022-12-13T01:12:31.447Z,19.55
2022-12-13T01:15:04.462Z,19.75
2022-12-13T01:17:37.744Z,19.20
2022-12-13T01:20:12.410Z,21.75
2022-12-13T01:22:39.512Z,23.67
2022-12-13T01:25:13.616Z,25.00
2022-12-13T01:27:47.519Z,21.10
2022-12-13T01:30:14.299Z,19.10
2022-12-13T01:32:47.449Z,21.52
2022-12-13T01:35:20.486Z,21.58
2022-12-13T01:37:47.286Z,22.05
2022-12-13T01:40:16.480Z,21.38
2022-12-13T01:42:49.485Z,21.10
2022-12-13T01:45:28.495Z,22.73
2022-12-13T01:48:10.546Z,23.13
2022-12-13T01:50:46.671Z,25.45
2022-12-13T01:53:23.506Z,24.73
2022-12-13T01:56:01.516Z,24.48
2022-12-13T01:58:28.968Z,26.63
2022-12-13T02:01:04.515Z,23.23
2022-12-13T02:03:33.093Z,23.42
2022-12-13T02:06:22.504Z,23.30
2022-12-13T02:08:56.543Z,23.10
2022-12-13T02:11:23.588Z,23.27
2022-12-13T02:14:02.559Z,22.08
2022-12-13T02:16:48.061Z,23.35
2022-12-13T02:19:55.542Z,24.33
2022-12-13T02:22:44.115Z,23.20
2022-12-13T02:25:46.524Z,22.85
2022-12-13T02:28:53.545Z,21.98
2022-12-13T02:31:42.459Z,22.88
2022-12-13T02:34:39.567Z,24.05
2022-12-13T02:37:18.236Z,24.67
2022-12-13T02:40:02.606Z,26.52
2022-12-13T02:42:46.628Z,23.65
2022-12-13T02:45:25.716Z,24.23
2022-12-13T02:48:03.575Z,24.73
2022-12-13T02:50:32.830Z,25.75
2022-12-13T02:53:01.097Z,23.42
2022-12-13T02:55:42.642Z,25.58
2022-12-13T02:58:20.577Z,23.70
2022-12-13T03:01:29.009Z,26.88
2022-12-13T03:04:26.846Z,25.30
2022-12-13T03:07:11.743Z,21.17
2022-12-13T03:09:53.625Z,27.40
2022-12-13T03:13:00.596Z,26.73
2022-12-13T03:15:34.431Z,28.02
2022-12-13T03:18:21.592Z,24.33
2022-12-13T03:20:57.622Z,23.00
2022-12-13T03:23:25.002Z,22.55
2022-12-13T03:26:07.644Z,24.33
2022-12-13T03:28:41.643Z,24.92
2022-12-13T03:31:15.608Z,25.15
2022-12-13T03:33:48.681Z,23.33
2022-12-13T03:36:22.607Z,25.58
2022-12-13T03:38:52.306Z,25.17
2022-12-13T03:41:30.692Z,24.35
2022-12-13T03:43:59.396Z,26.85
2022-12-13T03:46:32.702Z,27.05
2022-12-13T03:49:06.682Z,25.15
2022-12-13T03:51:35.496Z,26.30
2022-12-13T03:54:08.657Z,25.40
2022-12-13T03:56:35.527Z,26.13
2022-12-13T03:59:08.705Z,26.40
2022-12-13T04:01:35.490Z,27.63
2022-12-13T04:04:08.705Z,23.50
2022-12-13T04:06:41.778Z,25.60
2022-12-13T04:09:08.595Z,25.77
2022-12-13T04:12:01.670Z,25.17
2022-12-13T04:14:28.498Z,26.63
2022-12-13T04:16:55.299Z,24.77
2022-12-13T04:19:28.679Z,24.60
2022-12-13T04:22:01.724Z,25.55
2022-12-13T04:24:32.396Z,23.08
2022-12-13T04:27:08.742Z,24.25
2022-12-13T04:29:35.694Z,24.55
2022-12-13T04:32:03.973Z,24.30
2022-12-13T04:34:37.928Z,25.08
2022-12-13T04:37:05.152Z,24.42
2022-12-13T04:39:38.733Z,27.88
2022-12-13T04:42:15.443Z,24.90
2022-12-13T04:44:48.731Z,24.83
2022-12-13T04:47:21.144Z,27.00
2022-12-13T04:49:54.774Z,24.40
2022-12-13T04:52:27.726Z,26.77
2022-12-13T04:55:00.729Z,27.05
2022-12-13T04:57:33.745Z,26.02
2022-12-13T05:00:00.641Z,29.45
2022-12-13T05:02:34.832Z,24.75
2022-12-13T05:05:01.719Z,25.95
2022-12-13T05:07:34.809Z,27.45
2022-12-13T05:10:10.066Z,24.85
2022-12-13T05:12:43.788Z,25.27
2022-12-13T05:15:10.788Z,23.92
2022-12-13T05:17:43.835Z,25.40
2022-12-13T05:20:11.006Z,23.13
2022-12-13T05:22:47.777Z,27.20
2022-12-13T05:25:14.806Z,26.00
2022-12-13T05:27:41.795Z,26.45
2022-12-13T05:30:15.831Z,30.73
2022-12-13T05:32:44.905Z,28.10
2022-12-13T05:35:22.114Z,25.40
2022-12-13T05:37:53.965Z,25.35
2022-12-13T05:40:32.804Z,26.80
2022-12-13T05:43:22.016Z,25.10
2022-12-13T05:45:55.970Z,25.27
2022-12-13T05:48:24.392Z,23.70
2022-12-13T05:51:09.686Z,29.02
2022-12-13T05:53:39.861Z,24.08
2022-12-13T05:56:13.890Z,25.50
2022-12-13T05:58:49.774Z,23.90
2022-12-13T06:01:26.897Z,25.80
2022-12-13T06:03:53.644Z,26.70
2022-12-13T06:06:27.840Z,23.85
2022-12-13T06:08:54.683Z,23.63
2022-12-13T06:11:31.936Z,26.02
2022-12-13T06:14:00.797Z,26.58
2022-12-13T06:16:34.877Z,28.55
2022-12-13T06:19:07.852Z,27.63
2022-12-13T06:21:46.304Z,25.70
2022-12-13T06:24:15.192Z,24.13
2022-12-13T06:26:48.886Z,24.42
2022-12-13T06:29:23.533Z,26.25
2022-12-13T06:32:03.738Z,31.25
2022-12-13T06:34:41.939Z,25.50
2022-12-13T06:37:26.753Z,28.52
2022-12-13T06:39:53.524Z,28.23
2022-12-13T06:42:26.915Z,26.73
2022-12-13T06:44:59.920Z,25.08
2022-12-13T06:47:33.933Z,29.08
2022-12-13T06:50:04.902Z,25.55
2022-12-13T06:52:38.918Z,28.30
2022-12-13T06:55:06.235Z,26.75
2022-12-13T06:57:41.158Z,25.35
2022-12-13T07:00:15.952Z,26.88
2022-12-13T07:03:01.006Z,25.13
2022-12-13T07:05:27.894Z,26.95
2022-12-13T07:08:03.037Z,27.75
2022-12-13T07:10:29.980Z,25.15
2022-12-13T07:13:03.075Z,24.77
2022-12-13T07:15:32.841Z,26.55
2022-12-13T07:17:59.648Z,26.05
2022-12-13T07:20:32.967Z,25.77
2022-12-13T07:23:06.017Z,26.73
2022-12-13T07:25:38.995Z,26.80
2022-12-13T07:28:15.960Z,26.10
2022-12-13T07:30:42.764Z,24.90
2022-12-13T07:33:22.290Z,30.13
2022-12-13T07:35:55.168Z,28.23
2022-12-13T07:38:30.997Z,27.58
2022-12-13T07:41:05.015Z,27.23
2022-12-13T07:43:33.299Z,28.08
2022-12-13T07:46:13.069Z,26.00
2022-12-13T07:48:39.917Z,25.35
2022-12-13T07:51:17.166Z,27.77
2022-12-13T07:53:44.259Z,24.50
2022-12-13T07:56:19.154Z,27.92
2022-12-13T07:58:47.381Z,27.27
2022-12-13T08:01:21.114Z,25.75
2022-12-13T08:03:48.865Z,28.45
2022-12-13T08:06:15.673Z,28.33
2022-12-13T08:08:49.016Z,25.83
2022-12-13T08:11:29.034Z,27.25
2022-12-13T08:13:56.032Z,27.45
2022-12-13T08:16:29.924Z,26.27
2022-12-13T08:19:02.364Z,30.10
2022-12-13T08:21:57.341Z,28.10
2022-12-13T08:24:36.038Z,29.90
2022-12-13T08:27:10.019Z,29.23
2022-12-13T08:29:43.081Z,27.05
2022-12-13T08:35:00.222Z,24.77
2022-12-13T08:37:29.693Z,25.70
2022-12-13T08:40:03.072Z,28.45
2022-12-13T08:42:41.125Z,28.15
2022-12-13T08:45:15.216Z,28.42
2022-12-13T08:47:42.267Z,28.83
2022-12-13T08:50:09.244Z,30.60
2022-12-13T08:52:51.132Z,27.88
2022-12-13T08:55:32.230Z,30.27
2022-12-13T08:58:02.409Z,31.35
2022-12-13T09:00:36.673Z,28.98
2022-12-13T09:03:10.121Z,30.48
2022-12-13T09:05:44.179Z,27.55
2022-12-13T09:08:24.015Z,28.02
2022-12-13T09:11:11.329Z,28.38
2022-12-13T09:14:01.134Z,29.15
2022-12-13T09:16:37.220Z,27.27
2022-12-13T09:19:25.484Z,26.77
2022-12-13T09:22:02.665Z,26.13
2022-12-13T09:24:29.976Z,30.45
2022-12-13T09:27:27.515Z,27.80
2022-12-13T09:29:55.187Z,28.42
2022-12-13T09:32:29.171Z,25.67
2022-12-13T09:34:56.158Z,31.33
2022-12-13T09:37:23.493Z,26.70
2022-12-13T09:39:57.215Z,28.23
2022-12-13T09:42:30.739Z,25.42
2022-12-13T09:45:22.547Z,30.40
2022-12-13T09:48:01.303Z,28.70
2022-12-13T09:50:37.826Z,28.50
2022-12-13T09:53:21.717Z,35.00
2022-12-13T09:56:10.852Z,37.53
2022-12-13T09:58:40.601Z,36.13
2022-12-13T10:01:14.270Z,35.10
2022-12-13T10:04:02.260Z,34.28
2022-12-13T10:06:32.693Z,35.97
2022-12-13T10:09:07.284Z,32.30
2022-12-13T10:11:35.250Z,29.33
2022-12-13T10:14:34.192Z,31.17
2022-12-13T10:17:05.728Z,35.03
2022-12-13T10:19:46.256Z,29.10
2022-12-13T10:22:18.010Z,30.67
2022-12-13T10:25:10.346Z,27.92
2022-12-13T10:27:52.249Z,31.83
2022-12-13T10:30:28.079Z,28.38
2022-12-13T10:33:05.217Z,30.10
2022-12-13T10:35:38.572Z,27.17
2022-12-13T10:38:15.266Z,28.92
2022-12-13T10:40:45.665Z,26.65
2022-12-13T10:43:24.649Z,28.20
2022-12-13T10:46:06.343Z,38.53
2022-12-13T10:49:02.735Z,28.70
2022-12-13T10:51:46.278Z,31.35
2022-12-13T10:54:22.135Z,28.23
2022-12-13T10:56:58.343Z,27.70
2022-12-13T10:59:31.159Z,23.67
2022-12-13T11:02:29.315Z,29.83
2022-12-13T11:05:23.569Z,25.92
2022-12-13T11:07:51.414Z,25.67
2022-12-13T11:10:35.296Z,28.08
2022-12-13T11:13:04.801Z,25.90
2022-12-13T11:15:42.334Z,33.15
2022-12-13T11:18:27.605Z,32.10
2022-12-13T11:21:01.754Z,30.58
2022-12-13T11:23:45.309Z,35.90
2022-12-13T11:26:28.424Z,33.35
2022-12-13T11:29:20.265Z,27.75
2022-12-13T11:32:33.340Z,34.55
2022-12-13T11:35:16.308Z,28.60
2022-12-13T11:37:53.391Z,24.30
2022-12-13T11:40:25.446Z,20.85
2022-12-13T11:43:33.341Z,28.70
2022-12-13T11:46:04.946Z,24.58
2022-12-13T11:49:02.422Z,23.40
2022-12-13T11:51:50.378Z,32.60
2022-12-13T11:54:38.431Z,27.48
2022-12-13T11:57:26.385Z,31.10
2022-12-13T12:00:02.272Z,30.58
2022-12-13T12:02:48.452Z,27.65
2022-12-13T12:05:39.440Z,27.27
2022-12-13T12:08:43.117Z,25.77
2022-12-13T12:11:26.470Z,26.95
2022-12-13T12:14:11.056Z,24.17
2022-12-13T12:17:00.394Z,27.67
2022-12-13T12:19:41.463Z,25.55
2022-12-13T12:22:33.433Z,21.85
2022-12-13T12:25:23.562Z,22.30
2022-12-13T12:28:27.827Z,28.92
2022-12-13T12:31:12.851Z,24.52
2022-12-13T12:33:51.452Z,22.40
2022-12-13T12:36:28.470Z,23.10
2022-12-13T12:39:38.516Z,20.08
2022-12-13T12:42:49.930Z,25.60
2022-12-13T12:46:11.586Z,18.70
2022-12-13T12:48:57.067Z,27.02
2022-12-13T12:52:03.446Z,23.17
2022-12-13T12:55:03.573Z,25.23
2022-12-13T12:58:01.411Z,20.13
2022-12-13T13:00:43.459Z,21.77
2022-12-13T13:03:33.905Z,21.05
2022-12-13T13:06:03.134Z,28.02
2022-12-13T13:09:01.118Z,20.77
2022-12-13T13:11:30.893Z,24.50
2022-12-13T13:14:19.520Z,23.48
2022-12-13T13:16:47.065Z,22.95
2022-12-13T13:19:28.516Z,22.55
2022-12-13T13:22:03.498Z,25.60
2022-12-13T13:24:32.413Z,22.90
2022-12-13T13:27:26.566Z,28.85
2022-12-13T13:29:53.540Z,25.13
2022-12-13T13:32:32.558Z,25.95
2022-12-13T13:35:37.556Z,24.15
2022-12-13T13:38:35.542Z,23.40
2022-12-13T13:41:41.064Z,24.20
2022-12-13T13:44:51.572Z,27.85
2022-12-13T13:47:30.563Z,25.58
2022-12-13T13:50:02.701Z,26.38
2022-12-13T13:53:38.712Z,22.60
2022-12-13T13:56:41.546Z,22.73
2022-12-13T13:59:39.560Z,23.95
2022-12-13T14:02:31.572Z,26.20
2022-12-13T14:05:28.119Z,21.85
2022-12-13T14:08:07.712Z,25.05
2022-12-13T14:10:52.581Z,23.52
2022-12-13T14:14:21.407Z,25.20
2022-12-13T14:17:19.620Z,22.58
2022-12-13T14:20:21.382Z,21.63
2022-12-13T14:23:22.278Z,20.98
2022-12-13T14:26:21.935Z,18.17
2022-12-13T14:29:03.622Z,20.70
2022-12-13T14:31:48.405Z,22.30
2022-12-13T14:34:33.622Z,20.90
2022-12-13T14:37:32.844Z,22.33
2022-12-13T14:40:07.591Z,22.17
2022-12-13T14:42:34.522Z,25.10
2022-12-13T14:45:49.760Z,25.50
2022-12-13T14:51:03.657Z,27.35
2022-12-13T14:53:42.648Z,24.75
2022-12-13T14:56:28.731Z,35.22
2022-12-13T14:58:57.643Z,31.52
2022-12-13T15:01:41.640Z,27.45
2022-12-13T15:04:23.610Z,25.23
2022-12-13T15:09:39.434Z,29.65
2022-12-13T15:12:25.310Z,29.23
2022-12-13T15:15:09.047Z,32.60
2022-12-13T15:17:45.660Z,26.95
2022-12-13T15:20:30.280Z,31.77
2022-12-13T15:23:10.669Z,27.30
2022-12-13T15:25:38.037Z,28.52
2022-12-13T15:28:16.780Z,28.92
2022-12-13T15:30:53.655Z,32.83
2022-12-13T15:33:35.409Z,26.83
2022-12-13T15:36:10.855Z,32.17
2022-12-13T15:38:47.901Z,30.67
2022-12-13T15:41:22.752Z,36.63
2022-12-13T15:43:59.711Z,30.63
2022-12-13T15:46:38.661Z,28.65
2022-12-13T15:49:25.579Z,32.95
2022-12-13T15:52:10.729Z,31.02
2022-12-13T15:54:44.713Z,28.58
2022-12-13T15:57:20.738Z,27.33
2022-12-13T15:59:54.706Z,32.92
2022-12-13T16:02:30.835Z,32.90
2022-12-13T16:05:08.954Z,30.83
2022-12-13T16:07:48.776Z,32.58
2022-12-13T16:10:19.487Z,32.45
2022-12-13T16:13:10.734Z,35.25
2022-12-13T16:15:49.762Z,33.67
2022-12-13T16:18:28.740Z,31.85
2022-12-13T16:20:56.965Z,34.60
2022-12-13T16:23:30.828Z,31.75
2022-12-13T16:26:08.915Z,30.85
2022-12-13T16:28:36.076Z,35.78
2022-12-13T16:31:30.824Z,31.02
2022-12-13T16:34:03.808Z,28.63
2022-12-13T16:36:32.362Z,33.08
2022-12-13T16:39:05.788Z,32.78
2022-12-13T16:41:43.426Z,29.88
2022-12-13T16:44:27.790Z,30.35
2022-12-13T16:47:16.058Z,30.90
2022-12-13T16:49:49.842Z,28.58
2022-12-13T16:52:19.152Z,30.55
2022-12-13T16:54:52.835Z,30.20
2022-12-13T16:57:25.861Z,30.23
2022-12-13T16:59:53.262Z,29.58
2022-12-13T17:02:26.875Z,29.60
2022-12-13T17:04:56.072Z,29.95
2022-12-13T17:07:37.819Z,25.52
2022-12-13T17:10:10.097Z,27.35
2022-12-13T17:12:46.841Z,32.85
2022-12-13T17:15:21.825Z,24.27
2022-12-13T17:17:50.463Z,27.35
2022-12-13T17:20:24.925Z,26.92
2022-12-13T17:23:04.920Z,26.17
2022-12-13T17:25:37.841Z,26.48
2022-12-13T17:28:09.238Z,28.05
2022-12-13T17:30:42.939Z,23.02
2022-12-13T17:33:12.055Z,24.60
2022-12-13T17:35:47.981Z,25.10
2022-12-13T17:38:17.230Z,23.95
2022-12-13T17:40:47.526Z,24.08
2022-12-13T17:43:34.279Z,25.27
2022-12-13T17:46:09.956Z,23.38
2022-12-13T17:48:43.925Z,26.50
2022-12-13T17:51:17.599Z,29.20
2022-12-13T17:53:51.948Z,24.20
2022-12-13T17:56:19.819Z,29.88
2022-12-13T17:58:47.074Z,24.98
2022-12-13T18:01:25.950Z,24.88
2022-12-13T18:03:55.666Z,27.77
2022-12-13T18:06:30.949Z,24.20
2022-12-13T18:08:58.057Z,27.50
2022-12-13T18:11:34.169Z,26.08
2022-12-13T18:14:14.959Z,24.85
2022-12-13T18:16:42.035Z,24.42
2022-12-13T18:19:18.145Z,27.70
2022-12-13T18:21:44.978Z,26.80
2022-12-13T18:24:12.535Z,25.45
2022-12-13T18:26:45.942Z,25.88
2022-12-13T18:29:12.734Z,24.52
2022-12-13T18:31:45.957Z,29.40
2022-12-13T18:34:13.140Z,26.98
2022-12-13T18:36:46.975Z,28.65
2022-12-13T18:39:13.786Z,33.88
2022-12-13T18:41:47.018Z,24.65
2022-12-13T18:44:13.813Z,25.80
2022-12-13T18:46:47.182Z,31.70
2022-12-13T18:49:21.150Z,30.95
2022-12-13T18:51:53.985Z,32.00
2022-12-13T18:54:20.755Z,30.13
2022-12-13T18:56:47.893Z,26.88
2022-12-13T18:59:21.002Z,25.40
2022-12-13T19:01:47.858Z,29.27
2022-12-13T19:04:21.019Z,26.08
2022-12-13T19:06:53.995Z,27.30
2022-12-13T19:09:27.008Z,25.75
2022-12-13T19:12:00.053Z,27.27
2022-12-13T19:14:28.214Z,27.90
2022-12-13T19:17:01.100Z,30.05
2022-12-13T19:19:27.973Z,30.45
2022-12-13T19:22:01.065Z,25.65
2022-12-13T19:24:34.032Z,30.38
2022-12-13T19:27:07.006Z,27.83
2022-12-13T19:29:34.008Z,26.00
2022-12-13T19:32:07.028Z,24.90
2022-12-13T19:34:33.956Z,23.98
2022-12-13T19:37:08.114Z,27.33
2022-12-13T19:39:34.919Z,31.50
2022-12-13T19:42:01.976Z,29.10
2022-12-13T19:44:35.065Z,28.17
2022-12-13T19:47:02.059Z,27.05
2022-12-13T19:49:28.846Z,27.13
2022-12-13T19:52:09.319Z,27.75
2022-12-13T19:54:36.114Z,27.70
2022-12-13T19:57:09.070Z,30.02
2022-12-13T19:59:35.856Z,26.98
2022-12-13T20:02:03.347Z,27.92
2022-12-13T20:04:37.116Z,26.20
2022-12-13T20:07:04.212Z,24.75
2022-12-13T20:09:31.072Z,23.63
2022-12-13T20:12:04.263Z,27.40
2022-12-13T20:14:31.128Z,28.73
2022-12-13T20:17:08.164Z,24.70
2022-12-13T20:19:35.029Z,22.30
2022-12-13T20:22:01.890Z,22.42
2022-12-13T20:24:35.104Z,26.75
2022-12-13T20:27:02.013Z,26.33
2022-12-13T20:29:35.144Z,26.08
2022-12-13T20:32:07.079Z,24.73
2022-12-13T20:34:41.175Z,23.85
2022-12-13T20:37:15.163Z,22.88
2022-12-13T20:39:49.120Z,26.85
2022-12-13T20:42:22.247Z,30.40
2022-12-13T20:44:49.062Z,30.70
2022-12-13T20:47:22.161Z,25.52
2022-12-13T20:49:49.212Z,31.60
2022-12-13T20:52:23.137Z,25.77
2022-12-13T20:54:49.975Z,25.38
2022-12-13T20:57:17.370Z,23.60
2022-12-13T20:59:51.150Z,25.00
2022-12-13T21:02:20.413Z,24.55
2022-12-13T21:04:54.220Z,22.60
2022-12-13T21:07:41.041Z,23.92
2022-12-13T21:10:15.228Z,23.90
2022-12-13T21:12:42.178Z,21.63
2022-12-13T21:15:16.193Z,21.23
2022-12-13T21:17:49.205Z,21.63
2022-12-13T21:20:22.197Z,23.80
2022-12-13T21:22:55.275Z,23.98
2022-12-13T21:25:22.021Z,19.65
2022-12-13T21:27:55.187Z,22.60
2022-12-13T21:30:29.240Z,19.90
2022-12-13T21:32:56.063Z,19.45
2022-12-13T21:35:24.883Z,17.05
2022-12-13T21:38:02.201Z,20.08
2022-12-13T21:40:31.982Z,19.98
2022-12-13T21:43:05.196Z,20.45
2022-12-13T21:45:33.368Z,20.15
2022-12-13T21:48:00.157Z,20.05
2022-12-13T21:50:33.249Z,16.90
2022-12-13T21:52:59.963Z,19.45
2022-12-13T21:55:40.484Z,16.83
2022-12-13T21:58:28.404Z,17.58
2022-12-13T22:01:02.404Z,16.67
2022-12-13T22:03:36.266Z,17.42
2022-12-13T22:06:03.064Z,17.85
2022-12-13T22:08:36.284Z,17.55
2022-12-13T22:11:21.068Z,19.40
2022-12-13T22:13:55.266Z,16.23
2022-12-13T22:16:28.294Z,15.93
2022-12-13T22:19:02.269Z,19.08
2022-12-13T22:21:29.121Z,19.00
2022-12-13T22:24:02.460Z,19.83
2022-12-13T22:26:29.391Z,19.83
2022-12-13T22:29:05.367Z,19.38
2022-12-13T22:31:39.394Z,18.55
2022-12-13T22:34:06.716Z,20.30
2022-12-13T22:36:33.684Z,20.20
2022-12-13T22:39:07.332Z,20.13
2022-12-13T22:41:34.366Z,16.80
2022-12-13T22:44:07.629Z,20.70
2022-12-13T22:46:34.721Z,20.67
2022-12-13T22:49:01.558Z,18.65
2022-12-13T22:51:35.400Z,18.65
2022-12-13T22:54:09.361Z,19.73
2022-12-13T22:56:43.313Z,16.52
2022-12-13T22:59:16.378Z,18.38
2022-12-13T23:01:43.414Z,14.52
2022-12-13T23:04:21.374Z,15.02
2022-12-13T23:06:48.338Z,19.08
2022-12-13T23:09:15.556Z,16.63
2022-12-13T23:12:07.368Z,16.40
2022-12-13T23:14:41.762Z,14.07
2022-12-13T23:17:08.680Z,16.52
2022-12-13T23:19:49.111Z,14.25
2022-12-13T23:22:27.430Z,16.15
2022-12-13T23:25:00.415Z,16.63
2022-12-13T23:27:28.131Z,18.50
2022-12-13T23:30:01.435Z,16.92
2022-12-13T23:32:28.350Z,16.15
2022-12-13T23:35:01.339Z,17.48
2022-12-13T23:37:28.246Z,15.10
2022-12-13T23:40:01.476Z,16.77
2022-12-13T23:42:31.364Z,14.65
2022-12-13T23:45:12.404Z,15.88
2022-12-13T23:47:39.113Z,17.90
2022-12-13T23:50:13.573Z,15.50
2022-12-13T23:52:40.312Z,18.80
2022-12-13T23:55:07.407Z,16.55
2022-12-13T23:57:41.480Z,18.40
